sensor_id;sensor_type;location;lat;lon;timestamp;P1;durP1;ratioP1;P2;durP2;ratioP2
14768;SDS011;7476;49.404;11.152;2023-09-18T00:01:12;8.20;;;7.50;;
14768;SDS011;7476;49.404;11.152;2023-09-18T00:03:39;9.20;;;8.30;;
14768;SDS011;7476;49.404;11.152;2023-09-18T00:06:07;9.10;;;8.20;;
14768;SDS011;7476;49.404;11.152;2023-09-18T00:08:34;8.37;;;7.57;;
14768;SDS011;7476;49.404;11.152;2023-09-18T00:11:00;8.40;;;7.60;;
14768;SDS011;7476;49.404;11.152;2023-09-18T00:13:28;8.97;;;8.07;;
14768;SDS011;7476;49.404;11.152;2023-09-18T00:15:55;9.03;;;8.13;;
14768;SDS011;7476;49.404;11.152;2023-09-18T00:18:24;9.37;;;8.37;;
14768;SDS011;7476;49.404;11.152;2023-09-18T00:20:51;9.07;;;8.17;;
14768;SDS011;7476;49.404;11.152;2023-09-18T00:23:17;7.87;;;7.10;;
14768;SDS011;7476;49.404;11.152;2023-09-18T00:25:44;8.80;;;7.90;;
14768;SDS011;7476;49.404;11.152;2023-09-18T00:28:11;9.10;;;8.30;;
14768;SDS011;7476;49.404;11.152;2023-09-18T00:30:41;8.70;;;7.80;;
14768;SDS011;7476;49.404;11.152;2023-09-18T00:33:12;9.27;;;7.97;;
14768;SDS011;7476;49.404;11.152;2023-09-18T00:35:39;8.93;;;7.87;;
14768;SDS011;7476;49.404;11.152;2023-09-18T00:38:05;7.80;;;7.10;;
14768;SDS011;7476;49.404;11.152;2023-09-18T00:40:32;8.33;;;7.63;;
14768;SDS011;7476;49.404;11.152;2023-09-18T00:42:59;8.60;;;7.77;;
14768;SDS011;7476;49.404;11.152;2023-09-18T00:45:25;8.37;;;7.57;;
14768;SDS011;7476;49.404;11.152;2023-09-18T00:47:53;9.40;;;8.50;;
14768;SDS011;7476;49.404;11.152;2023-09-18T00:50:20;8.43;;;7.30;;
14768;SDS011;7476;49.404;11.152;2023-09-18T00:52:47;8.40;;;7.60;;
14768;SDS011;7476;49.404;11.152;2023-09-18T00:55:15;8.17;;;7.47;;
14768;SDS011;7476;49.404;11.152;2023-09-18T00:57:42;8.17;;;7.30;;
14768;SDS011;7476;49.404;11.152;2023-09-18T01:00:10;8.67;;;7.70;;
14768;SDS011;7476;49.404;11.152;2023-09-18T01:02:42;8.20;;;7.50;;
14768;SDS011;7476;49.404;11.152;2023-09-18T01:05:11;8.27;;;7.47;;
14768;SDS011;7476;49.404;11.152;2023-09-18T01:07:38;8.30;;;7.47;;
14768;SDS011;7476;49.404;11.152;2023-09-18T01:10:05;8.47;;;7.67;;
14768;SDS011;7476;49.404;11.152;2023-09-18T01:12:36;8.87;;;7.97;;
14768;SDS011;7476;49.404;11.152;2023-09-18T01:15:12;8.20;;;7.40;;
14768;SDS011;7476;49.404;11.152;2023-09-18T01:17:45;9.10;;;7.77;;
14768;SDS011;7476;49.404;11.152;2023-09-18T01:20:14;8.03;;;7.33;;
14768;SDS011;7476;49.404;11.152;2023-09-18T01:22:42;8.83;;;8.03;;
14768;SDS011;7476;49.404;11.152;2023-09-18T01:25:09;8.53;;;7.53;;
14768;SDS011;7476;49.404;11.152;2023-09-18T01:27:36;9.00;;;7.73;;
14768;SDS011;7476;49.404;11.152;2023-09-18T01:30:02;11.33;;;7.93;;
14768;SDS011;7476;49.404;11.152;2023-09-18T01:32:30;8.87;;;7.97;;
14768;SDS011;7476;49.404;11.152;2023-09-18T01:34:59;8.20;;;7.40;;
14768;SDS011;7476;49.404;11.152;2023-09-18T01:37:29;7.93;;;7.23;;
14768;SDS011;7476;49.404;11.152;2023-09-18T01:39:58;9.00;;;7.67;;
14768;SDS011;7476;49.404;11.152;2023-09-18T01:42:25;7.90;;;7.07;;
14768;SDS011;7476;49.404;11.152;2023-09-18T01:44:53;8.43;;;7.63;;
14768;SDS011;7476;49.404;11.152;2023-09-18T01:47:21;8.60;;;7.60;;
14768;SDS011;7476;49.404;11.152;2023-09-18T01:49:49;8.63;;;7.83;;
14768;SDS011;7476;49.404;11.152;2023-09-18T01:52:15;8.13;;;7.33;;
14768;SDS011;7476;49.404;11.152;2023-09-18T01:54:42;8.30;;;7.50;;
14768;SDS011;7476;49.404;11.152;2023-09-18T01:57:10;8.00;;;7.30;;
14768;SDS011;7476;49.404;11.152;2023-09-18T01:59:37;8.13;;;7.30;;
14768;SDS011;7476;49.404;11.152;2023-09-18T02:02:04;9.33;;;7.87;;
14768;SDS011;7476;49.404;11.152;2023-09-18T02:04:34;7.87;;;7.07;;
14768;SDS011;7476;49.404;11.152;2023-09-18T02:07:01;8.80;;;7.83;;
14768;SDS011;7476;49.404;11.152;2023-09-18T02:09:28;8.77;;;7.93;;
14768;SDS011;7476;49.404;11.152;2023-09-18T02:11:55;9.13;;;8.00;;
14768;SDS011;7476;49.404;11.152;2023-09-18T02:14:23;9.40;;;8.40;;
14768;SDS011;7476;49.404;11.152;2023-09-18T02:16:50;9.83;;;8.60;;
14768;SDS011;7476;49.404;11.152;2023-09-18T02:19:16;9.30;;;7.97;;
14768;SDS011;7476;49.404;11.152;2023-09-18T02:21:45;9.10;;;8.20;;
14768;SDS011;7476;49.404;11.152;2023-09-18T02:24:11;8.80;;;7.83;;
14768;SDS011;7476;49.404;11.152;2023-09-18T02:26:38;8.60;;;7.80;;
14768;SDS011;7476;49.404;11.152;2023-09-18T02:29:05;8.30;;;7.50;;
14768;SDS011;7476;49.404;11.152;2023-09-18T02:31:36;8.97;;;7.80;;
14768;SDS011;7476;49.404;11.152;2023-09-18T02:34:03;8.17;;;7.30;;
14768;SDS011;7476;49.404;11.152;2023-09-18T02:36:30;7.70;;;7.00;;
14768;SDS011;7476;49.404;11.152;2023-09-18T02:38:57;7.93;;;7.23;;
14768;SDS011;7476;49.404;11.152;2023-09-18T02:41:23;8.50;;;7.60;;
14768;SDS011;7476;49.404;11.152;2023-09-18T02:43:50;8.97;;;8.17;;
14768;SDS011;7476;49.404;11.152;2023-09-18T02:46:17;8.87;;;7.97;;
14768;SDS011;7476;49.404;11.152;2023-09-18T02:48:45;9.17;;;8.37;;
14768;SDS011;7476;49.404;11.152;2023-09-18T02:51:11;8.63;;;7.73;;
14768;SDS011;7476;49.404;11.152;2023-09-18T02:53:38;8.10;;;7.40;;
14768;SDS011;7476;49.404;11.152;2023-09-18T02:56:04;8.43;;;7.43;;
14768;SDS011;7476;49.404;11.152;2023-09-18T02:58:31;9.13;;;6.93;;
14768;SDS011;7476;49.404;11.152;2023-09-18T03:00:58;8.83;;;7.77;;
14768;SDS011;7476;49.404;11.152;2023-09-18T03:03:25;8.70;;;7.87;;
14768;SDS011;7476;49.404;11.152;2023-09-18T03:05:59;8.27;;;7.47;;
14768;SDS011;7476;49.404;11.152;2023-09-18T03:08:26;8.87;;;7.97;;
14768;SDS011;7476;49.404;11.152;2023-09-18T03:10:53;8.73;;;7.93;;
14768;SDS011;7476;49.404;11.152;2023-09-18T03:13:21;9.33;;;8.43;;
14768;SDS011;7476;49.404;11.152;2023-09-18T03:15:48;9.60;;;8.27;;
14768;SDS011;7476;49.404;11.152;2023-09-18T03:18:14;8.67;;;7.80;;
14768;SDS011;7476;49.404;11.152;2023-09-18T03:20:41;9.73;;;8.47;;
14768;SDS011;7476;49.404;11.152;2023-09-18T03:23:09;9.60;;;8.67;;
14768;SDS011;7476;49.404;11.152;2023-09-18T03:25:36;9.97;;;8.93;;
14768;SDS011;7476;49.404;11.152;2023-09-18T03:28:03;9.00;;;8.10;;
14768;SDS011;7476;49.404;11.152;2023-09-18T03:30:30;8.80;;;7.93;;
14768;SDS011;7476;49.404;11.152;2023-09-18T03:32:57;8.83;;;8.03;;
14768;SDS011;7476;49.404;11.152;2023-09-18T03:35:24;8.20;;;7.43;;
14768;SDS011;7476;49.404;11.152;2023-09-18T03:37:51;9.83;;;8.13;;
14768;SDS011;7476;49.404;11.152;2023-09-18T03:40:20;8.60;;;7.70;;
14768;SDS011;7476;49.404;11.152;2023-09-18T03:42:47;9.40;;;8.47;;
14768;SDS011;7476;49.404;11.152;2023-09-18T03:45:14;10.10;;;8.23;;
14768;SDS011;7476;49.404;11.152;2023-09-18T03:47:43;10.80;;;8.77;;
14768;SDS011;7476;49.404;11.152;2023-09-18T03:50:11;10.47;;;8.80;;
14768;SDS011;7476;49.404;11.152;2023-09-18T03:52:38;10.07;;;8.20;;
14768;SDS011;7476;49.404;11.152;2023-09-18T03:55:06;9.13;;;8.20;;
14768;SDS011;7476;49.404;11.152;2023-09-18T03:57:34;8.80;;;7.90;;
14768;SDS011;7476;49.404;11.152;2023-09-18T04:00:02;8.90;;;7.93;;
14768;SDS011;7476;49.404;11.152;2023-09-18T04:02:30;11.17;;;8.30;;
14768;SDS011;7476;49.404;11.152;2023-09-18T04:04:56;10.60;;;8.33;;
14768;SDS011;7476;49.404;11.152;2023-09-18T04:07:23;8.80;;;7.90;;
14768;SDS011;7476;49.404;11.152;2023-09-18T04:09:50;9.23;;;8.27;;
14768;SDS011;7476;49.404;11.152;2023-09-18T04:12:16;9.23;;;8.33;;
14768;SDS011;7476;49.404;11.152;2023-09-18T04:14:45;8.90;;;8.00;;
14768;SDS011;7476;49.404;11.152;2023-09-18T04:17:11;9.33;;;7.83;;
14768;SDS011;7476;49.404;11.152;2023-09-18T04:19:38;8.97;;;8.07;;
14768;SDS011;7476;49.404;11.152;2023-09-18T04:22:05;8.80;;;8.00;;
14768;SDS011;7476;49.404;11.152;2023-09-18T04:24:33;9.13;;;8.33;;
14768;SDS011;7476;49.404;11.152;2023-09-18T04:26:59;9.10;;;8.30;;
14768;SDS011;7476;49.404;11.152;2023-09-18T04:29:26;9.40;;;8.50;;
14768;SDS011;7476;49.404;11.152;2023-09-18T04:31:54;8.47;;;7.67;;
14768;SDS011;7476;49.404;11.152;2023-09-18T04:34:22;9.00;;;8.10;;
14768;SDS011;7476;49.404;11.152;2023-09-18T04:36:49;9.13;;;8.03;;
14768;SDS011;7476;49.404;11.152;2023-09-18T04:39:16;10.30;;;8.70;;
14768;SDS011;7476;49.404;11.152;2023-09-18T04:41:44;9.57;;;8.67;;
14768;SDS011;7476;49.404;11.152;2023-09-18T04:44:11;9.97;;;8.70;;
14768;SDS011;7476;49.404;11.152;2023-09-18T04:46:39;10.60;;;9.53;;
14768;SDS011;7476;49.404;11.152;2023-09-18T04:49:08;9.57;;;8.43;;
14768;SDS011;7476;49.404;11.152;2023-09-18T04:51:36;9.70;;;8.60;;
14768;SDS011;7476;49.404;11.152;2023-09-18T04:54:04;9.23;;;8.37;;
14768;SDS011;7476;49.404;11.152;2023-09-18T04:56:31;9.70;;;8.80;;
14768;SDS011;7476;49.404;11.152;2023-09-18T04:58:58;9.37;;;8.53;;
14768;SDS011;7476;49.404;11.152;2023-09-18T05:01:24;9.93;;;8.67;;
14768;SDS011;7476;49.404;11.152;2023-09-18T05:03:52;9.63;;;8.73;;
14768;SDS011;7476;49.404;11.152;2023-09-18T05:06:20;9.23;;;8.43;;
14768;SDS011;7476;49.404;11.152;2023-09-18T05:08:46;10.67;;;9.57;;
14768;SDS011;7476;49.404;11.152;2023-09-18T05:11:13;12.03;;;9.67;;
14768;SDS011;7476;49.404;11.152;2023-09-18T05:13:40;10.00;;;9.00;;
14768;SDS011;7476;49.404;11.152;2023-09-18T05:16:07;10.40;;;9.40;;
14768;SDS011;7476;49.404;11.152;2023-09-18T05:18:33;10.07;;;9.07;;
14768;SDS011;7476;49.404;11.152;2023-09-18T05:21:00;9.73;;;8.80;;
14768;SDS011;7476;49.404;11.152;2023-09-18T05:23:31;10.17;;;9.17;;
14768;SDS011;7476;49.404;11.152;2023-09-18T05:25:57;10.27;;;9.37;;
14768;SDS011;7476;49.404;11.152;2023-09-18T05:28:24;9.37;;;8.53;;
14768;SDS011;7476;49.404;11.152;2023-09-18T05:30:51;10.13;;;9.10;;
14768;SDS011;7476;49.404;11.152;2023-09-18T05:33:18;9.50;;;8.70;;
14768;SDS011;7476;49.404;11.152;2023-09-18T05:35:45;9.63;;;8.73;;
14768;SDS011;7476;49.404;11.152;2023-09-18T05:38:12;9.97;;;8.97;;
14768;SDS011;7476;49.404;11.152;2023-09-18T05:40:40;9.30;;;8.43;;
14768;SDS011;7476;49.404;11.152;2023-09-18T05:43:08;10.10;;;8.97;;
14768;SDS011;7476;49.404;11.152;2023-09-18T05:45:35;10.60;;;9.00;;
14768;SDS011;7476;49.404;11.152;2023-09-18T05:48:02;9.50;;;8.60;;
14768;SDS011;7476;49.404;11.152;2023-09-18T05:50:29;11.03;;;9.27;;
14768;SDS011;7476;49.404;11.152;2023-09-18T05:52:57;9.53;;;8.63;;
14768;SDS011;7476;49.404;11.152;2023-09-18T05:55:25;9.10;;;8.30;;
14768;SDS011;7476;49.404;11.152;2023-09-18T05:57:53;10.30;;;9.40;;
14768;SDS011;7476;49.404;11.152;2023-09-18T06:00:20;9.30;;;8.50;;
14768;SDS011;7476;49.404;11.152;2023-09-18T06:02:47;9.70;;;8.80;;
14768;SDS011;7476;49.404;11.152;2023-09-18T06:05:14;9.57;;;8.67;;
14768;SDS011;7476;49.404;11.152;2023-09-18T06:07:42;8.77;;;7.97;;
14768;SDS011;7476;49.404;11.152;2023-09-18T06:10:09;8.87;;;8.17;;
14768;SDS011;7476;49.404;11.152;2023-09-18T06:12:37;9.20;;;8.30;;
14768;SDS011;7476;49.404;11.152;2023-09-18T06:15:07;9.13;;;8.30;;
14768;SDS011;7476;49.404;11.152;2023-09-18T06:17:35;8.50;;;7.80;;
14768;SDS011;7476;49.404;11.152;2023-09-18T06:20:03;7.83;;;7.03;;
14768;SDS011;7476;49.404;11.152;2023-09-18T06:22:32;7.57;;;6.87;;
14768;SDS011;7476;49.404;11.152;2023-09-18T06:24:59;7.43;;;6.83;;
14768;SDS011;7476;49.404;11.152;2023-09-18T06:27:26;7.57;;;6.97;;
14768;SDS011;7476;49.404;11.152;2023-09-18T06:29:52;8.43;;;7.63;;
14768;SDS011;7476;49.404;11.152;2023-09-18T06:32:20;8.80;;;7.90;;
14768;SDS011;7476;49.404;11.152;2023-09-18T06:34:47;7.83;;;7.03;;
14768;SDS011;7476;49.404;11.152;2023-09-18T06:37:14;7.93;;;7.23;;
14768;SDS011;7476;49.404;11.152;2023-09-18T06:39:41;8.67;;;7.87;;
14768;SDS011;7476;49.404;11.152;2023-09-18T06:42:07;8.50;;;7.70;;
14768;SDS011;7476;49.404;11.152;2023-09-18T06:44:34;9.70;;;7.07;;
14768;SDS011;7476;49.404;11.152;2023-09-18T06:47:01;7.40;;;6.70;;
14768;SDS011;7476;49.404;11.152;2023-09-18T06:49:29;6.50;;;6.00;;
14768;SDS011;7476;49.404;11.152;2023-09-18T07:39:56;6.77;;;5.10;;
14768;SDS011;7476;49.404;11.152;2023-09-18T07:42:23;5.23;;;4.77;;
14768;SDS011;7476;49.404;11.152;2023-09-18T07:44:50;6.50;;;5.20;;
14768;SDS011;7476;49.404;11.152;2023-09-18T07:47:17;5.40;;;4.60;;
14768;SDS011;7476;49.404;11.152;2023-09-18T07:49:44;7.20;;;4.83;;
14768;SDS011;7476;49.404;11.152;2023-09-18T07:52:10;5.80;;;4.60;;
14768;SDS011;7476;49.404;11.152;2023-09-18T07:54:37;4.53;;;4.13;;
14768;SDS011;7476;49.404;11.152;2023-09-18T07:57:05;6.80;;;4.40;;
14768;SDS011;7476;49.404;11.152;2023-09-18T07:59:34;5.00;;;4.30;;
14768;SDS011;7476;49.404;11.152;2023-09-18T08:02:01;5.50;;;4.50;;
14768;SDS011;7476;49.404;11.152;2023-09-18T08:04:28;4.90;;;4.50;;
14768;SDS011;7476;49.404;11.152;2023-09-18T08:06:57;4.77;;;3.90;;
14768;SDS011;7476;49.404;11.152;2023-09-18T08:09:25;4.80;;;4.33;;
14768;SDS011;7476;49.404;11.152;2023-09-18T08:11:54;6.60;;;4.40;;
14768;SDS011;7476;49.404;11.152;2023-09-18T08:14:22;5.50;;;4.50;;
14768;SDS011;7476;49.404;11.152;2023-09-18T08:16:55;7.13;;;4.30;;
14768;SDS011;7476;49.404;11.152;2023-09-18T08:19:23;5.20;;;4.53;;
14768;SDS011;7476;49.404;11.152;2023-09-18T08:21:51;5.13;;;3.93;;
14768;SDS011;7476;49.404;11.152;2023-09-18T08:24:19;7.07;;;4.30;;
14768;SDS011;7476;49.404;11.152;2023-09-18T08:26:46;5.90;;;3.97;;
14768;SDS011;7476;49.404;11.152;2023-09-18T08:29:12;5.63;;;3.95;;
14768;SDS011;7476;49.404;11.152;2023-09-18T08:31:40;6.68;;;4.50;;
14768;SDS011;7476;49.404;11.152;2023-09-18T08:34:07;4.88;;;3.72;;
14768;SDS011;7476;49.404;11.152;2023-09-18T08:36:34;6.47;;;4.20;;
14768;SDS011;7476;49.404;11.152;2023-09-18T08:39:00;4.97;;;3.90;;
14768;SDS011;7476;49.404;11.152;2023-09-18T08:41:28;5.82;;;3.67;;
14768;SDS011;7476;49.404;11.152;2023-09-18T08:43:59;5.78;;;3.97;;
14768;SDS011;7476;49.404;11.152;2023-09-18T08:46:28;7.68;;;4.10;;
14768;SDS011;7476;49.404;11.152;2023-09-18T08:48:56;6.30;;;3.53;;
14768;SDS011;7476;49.404;11.152;2023-09-18T08:51:24;5.05;;;3.80;;
14768;SDS011;7476;49.404;11.152;2023-09-18T08:53:53;7.40;;;4.38;;
14768;SDS011;7476;49.404;11.152;2023-09-18T08:56:21;5.35;;;3.70;;
14768;SDS011;7476;49.404;11.152;2023-09-18T08:58:49;7.68;;;3.55;;
14768;SDS011;7476;49.404;11.152;2023-09-18T09:01:16;9.63;;;3.80;;
14768;SDS011;7476;49.404;11.152;2023-09-18T09:03:43;7.78;;;3.70;;
14768;SDS011;7476;49.404;11.152;2023-09-18T09:06:11;5.75;;;3.60;;
14768;SDS011;7476;49.404;11.152;2023-09-18T09:08:38;7.50;;;3.88;;
14768;SDS011;7476;49.404;11.152;2023-09-18T09:11:05;7.60;;;3.50;;
14768;SDS011;7476;49.404;11.152;2023-09-18T09:13:32;8.95;;;4.00;;
14768;SDS011;7476;49.404;11.152;2023-09-18T09:16:01;8.73;;;3.70;;
14768;SDS011;7476;49.404;11.152;2023-09-18T09:18:29;5.30;;;3.70;;
14768;SDS011;7476;49.404;11.152;2023-09-18T09:21:00;6.17;;;4.00;;
14768;SDS011;7476;49.404;11.152;2023-09-18T09:23:44;6.27;;;3.90;;
14768;SDS011;7476;49.404;11.152;2023-09-18T09:26:14;5.73;;;3.67;;
14768;SDS011;7476;49.404;11.152;2023-09-18T09:28:42;7.73;;;3.50;;
14768;SDS011;7476;49.404;11.152;2023-09-18T09:31:09;5.57;;;3.50;;
14768;SDS011;7476;49.404;11.152;2023-09-18T09:33:36;6.17;;;3.73;;
14768;SDS011;7476;49.404;11.152;2023-09-18T09:36:05;6.90;;;3.50;;
14768;SDS011;7476;49.404;11.152;2023-09-18T09:38:34;8.52;;;3.63;;
14768;SDS011;7476;49.404;11.152;2023-09-18T09:41:02;10.40;;;3.83;;
14768;SDS011;7476;49.404;11.152;2023-09-18T09:43:32;9.60;;;3.80;;
14768;SDS011;7476;49.404;11.152;2023-09-18T09:45:59;6.38;;;3.42;;
14768;SDS011;7476;49.404;11.152;2023-09-18T09:48:27;7.47;;;3.40;;
14768;SDS011;7476;49.404;11.152;2023-09-18T09:50:57;5.05;;;3.45;;
14768;SDS011;7476;49.404;11.152;2023-09-18T09:56:12;7.53;;;3.03;;
14768;SDS011;7476;49.404;11.152;2023-09-18T09:58:39;5.68;;;3.20;;
14768;SDS011;7476;49.404;11.152;2023-09-18T10:01:09;11.17;;;3.20;;
14768;SDS011;7476;49.404;11.152;2023-09-18T10:03:42;7.03;;;3.30;;
14768;SDS011;7476;49.404;11.152;2023-09-18T10:06:10;4.80;;;2.83;;
14768;SDS011;7476;49.404;11.152;2023-09-18T10:08:38;5.63;;;2.77;;
14768;SDS011;7476;49.404;11.152;2023-09-18T10:11:07;6.30;;;3.00;;
14768;SDS011;7476;49.404;11.152;2023-09-18T10:13:39;5.07;;;2.90;;
14768;SDS011;7476;49.404;11.152;2023-09-18T10:16:11;5.77;;;3.30;;
14768;SDS011;7476;49.404;11.152;2023-09-18T10:18:42;6.73;;;3.10;;
14768;SDS011;7476;49.404;11.152;2023-09-18T10:21:17;7.33;;;2.80;;
14768;SDS011;7476;49.404;11.152;2023-09-18T10:23:58;5.53;;;2.83;;
14768;SDS011;7476;49.404;11.152;2023-09-18T10:26:30;7.03;;;2.80;;
14768;SDS011;7476;49.404;11.152;2023-09-18T10:29:03;5.37;;;2.70;;
14768;SDS011;7476;49.404;11.152;2023-09-18T10:31:34;6.77;;;2.90;;
14768;SDS011;7476;49.404;11.152;2023-09-18T10:34:02;7.33;;;3.13;;
14768;SDS011;7476;49.404;11.152;2023-09-18T10:36:31;7.13;;;2.53;;
14768;SDS011;7476;49.404;11.152;2023-09-18T10:38:58;4.87;;;2.67;;
14768;SDS011;7476;49.404;11.152;2023-09-18T10:41:26;6.93;;;2.77;;
14768;SDS011;7476;49.404;11.152;2023-09-18T10:43:54;4.53;;;2.50;;
14768;SDS011;7476;49.404;11.152;2023-09-18T10:46:22;7.03;;;2.83;;
14768;SDS011;7476;49.404;11.152;2023-09-18T10:48:50;5.33;;;2.60;;
14768;SDS011;7476;49.404;11.152;2023-09-18T10:51:19;6.30;;;2.53;;
14768;SDS011;7476;49.404;11.152;2023-09-18T10:53:47;4.87;;;2.13;;
14768;SDS011;7476;49.404;11.152;2023-09-18T10:56:14;7.23;;;2.40;;
14768;SDS011;7476;49.404;11.152;2023-09-18T10:58:42;4.20;;;2.43;;
14768;SDS011;7476;49.404;11.152;2023-09-18T11:01:11;5.40;;;2.30;;
14768;SDS011;7476;49.404;11.152;2023-09-18T11:03:38;7.87;;;2.80;;
14768;SDS011;7476;49.404;11.152;2023-09-18T11:06:06;4.83;;;2.53;;
14768;SDS011;7476;49.404;11.152;2023-09-18T11:08:43;6.67;;;2.40;;
14768;SDS011;7476;49.404;11.152;2023-09-18T11:11:11;4.43;;;2.53;;
14768;SDS011;7476;49.404;11.152;2023-09-18T11:13:40;8.97;;;3.17;;
14768;SDS011;7476;49.404;11.152;2023-09-18T11:16:17;6.40;;;2.47;;
14768;SDS011;7476;49.404;11.152;2023-09-18T11:19:05;8.10;;;2.67;;
14768;SDS011;7476;49.404;11.152;2023-09-18T11:21:34;4.03;;;2.13;;
14768;SDS011;7476;49.404;11.152;2023-09-18T11:24:01;4.07;;;2.20;;
14768;SDS011;7476;49.404;11.152;2023-09-18T11:26:29;6.43;;;2.13;;
14768;SDS011;7476;49.404;11.152;2023-09-18T11:28:58;5.63;;;1.87;;
14768;SDS011;7476;49.404;11.152;2023-09-18T11:31:43;6.27;;;2.27;;
14768;SDS011;7476;49.404;11.152;2023-09-18T11:34:13;4.30;;;1.90;;
14768;SDS011;7476;49.404;11.152;2023-09-18T11:36:40;5.27;;;1.70;;
14768;SDS011;7476;49.404;11.152;2023-09-18T11:39:08;4.93;;;2.10;;
14768;SDS011;7476;49.404;11.152;2023-09-18T11:41:36;4.63;;;1.80;;
14768;SDS011;7476;49.404;11.152;2023-09-18T11:47:01;4.13;;;1.80;;
14768;SDS011;7476;49.404;11.152;2023-09-18T11:49:29;3.37;;;1.80;;
14768;SDS011;7476;49.404;11.152;2023-09-18T11:51:58;5.40;;;2.00;;
14768;SDS011;7476;49.404;11.152;2023-09-18T11:54:25;3.27;;;1.93;;
14768;SDS011;7476;49.404;11.152;2023-09-18T11:56:53;3.73;;;1.70;;
14768;SDS011;7476;49.404;11.152;2023-09-18T11:59:32;5.17;;;1.70;;
14768;SDS011;7476;49.404;11.152;2023-09-18T12:02:01;6.23;;;1.90;;
14768;SDS011;7476;49.404;11.152;2023-09-18T12:04:31;4.63;;;1.80;;
14768;SDS011;7476;49.404;11.152;2023-09-18T12:06:58;5.87;;;1.93;;
14768;SDS011;7476;49.404;11.152;2023-09-18T12:09:28;5.97;;;2.20;;
14768;SDS011;7476;49.404;11.152;2023-09-18T12:11:55;5.17;;;2.07;;
14768;SDS011;7476;49.404;11.152;2023-09-18T12:14:22;3.33;;;2.03;;
14768;SDS011;7476;49.404;11.152;2023-09-18T12:16:49;5.93;;;1.80;;
14768;SDS011;7476;49.404;11.152;2023-09-18T12:19:18;4.57;;;1.90;;
14768;SDS011;7476;49.404;11.152;2023-09-18T12:21:46;4.80;;;1.80;;
14768;SDS011;7476;49.404;11.152;2023-09-18T12:24:13;6.17;;;1.80;;
14768;SDS011;7476;49.404;11.152;2023-09-18T12:26:40;3.17;;;1.50;;
14768;SDS011;7476;49.404;11.152;2023-09-18T12:29:07;2.60;;;1.40;;
14768;SDS011;7476;49.404;11.152;2023-09-18T12:31:35;5.60;;;1.60;;
14768;SDS011;7476;49.404;11.152;2023-09-18T12:34:02;2.10;;;1.70;;
14768;SDS011;7476;49.404;11.152;2023-09-18T12:36:34;4.43;;;1.87;;
14768;SDS011;7476;49.404;11.152;2023-09-18T12:39:02;2.47;;;1.70;;
14768;SDS011;7476;49.404;11.152;2023-09-18T12:41:28;3.47;;;1.70;;
14768;SDS011;7476;49.404;11.152;2023-09-18T12:43:57;5.33;;;1.70;;
14768;SDS011;7476;49.404;11.152;2023-09-18T12:46:23;2.87;;;1.33;;
14768;SDS011;7476;49.404;11.152;2023-09-18T12:48:50;3.17;;;1.50;;
14768;SDS011;7476;49.404;11.152;2023-09-18T12:51:17;3.47;;;1.50;;
14768;SDS011;7476;49.404;11.152;2023-09-18T12:53:58;3.30;;;1.80;;
14768;SDS011;7476;49.404;11.152;2023-09-18T12:56:25;4.47;;;2.00;;
14768;SDS011;7476;49.404;11.152;2023-09-18T12:58:52;4.10;;;1.93;;
14768;SDS011;7476;49.404;11.152;2023-09-18T13:01:23;2.03;;;1.60;;
14768;SDS011;7476;49.404;11.152;2023-09-18T13:03:53;4.63;;;1.97;;
14768;SDS011;7476;49.404;11.152;2023-09-18T13:06:20;2.87;;;2.00;;
14768;SDS011;7476;49.404;11.152;2023-09-18T13:08:48;2.20;;;1.70;;
14768;SDS011;7476;49.404;11.152;2023-09-18T13:11:18;3.83;;;1.90;;
14768;SDS011;7476;49.404;11.152;2023-09-18T13:13:44;7.50;;;2.57;;
14768;SDS011;7476;49.404;11.152;2023-09-18T13:16:11;5.33;;;3.13;;
14768;SDS011;7476;49.404;11.152;2023-09-18T13:18:38;3.63;;;1.80;;
14768;SDS011;7476;49.404;11.152;2023-09-18T13:21:11;4.27;;;2.10;;
14768;SDS011;7476;49.404;11.152;2023-09-18T13:23:39;3.00;;;1.67;;
14768;SDS011;7476;49.404;11.152;2023-09-18T13:26:07;3.87;;;1.70;;
14768;SDS011;7476;49.404;11.152;2023-09-18T13:28:34;4.60;;;1.80;;
14768;SDS011;7476;49.404;11.152;2023-09-18T13:31:02;7.47;;;1.80;;
14768;SDS011;7476;49.404;11.152;2023-09-18T13:33:31;2.73;;;1.50;;
14768;SDS011;7476;49.404;11.152;2023-09-18T13:35:59;3.93;;;1.80;;
14768;SDS011;7476;49.404;11.152;2023-09-18T13:38:25;4.40;;;2.00;;
14768;SDS011;7476;49.404;11.152;2023-09-18T13:40:52;4.30;;;1.70;;
14768;SDS011;7476;49.404;11.152;2023-09-18T13:43:21;4.30;;;2.30;;
14768;SDS011;7476;49.404;11.152;2023-09-18T13:45:48;4.87;;;1.67;;
14768;SDS011;7476;49.404;11.152;2023-09-18T13:48:16;3.37;;;1.60;;
14768;SDS011;7476;49.404;11.152;2023-09-18T13:50:43;2.33;;;1.80;;
14768;SDS011;7476;49.404;11.152;2023-09-18T13:53:11;4.37;;;1.87;;
14768;SDS011;7476;49.404;11.152;2023-09-18T13:55:37;2.63;;;1.77;;
14768;SDS011;7476;49.404;11.152;2023-09-18T13:58:04;5.77;;;1.80;;
14768;SDS011;7476;49.404;11.152;2023-09-18T14:00:32;5.30;;;1.57;;
14768;SDS011;7476;49.404;11.152;2023-09-18T14:02:59;4.93;;;1.70;;
14768;SDS011;7476;49.404;11.152;2023-09-18T14:05:25;2.50;;;1.80;;
14768;SDS011;7476;49.404;11.152;2023-09-18T14:07:53;3.63;;;1.63;;
14768;SDS011;7476;49.404;11.152;2023-09-18T14:10:24;3.93;;;1.50;;
14768;SDS011;7476;49.404;11.152;2023-09-18T14:12:51;3.70;;;1.77;;
14768;SDS011;7476;49.404;11.152;2023-09-18T14:15:18;2.97;;;1.80;;
14768;SDS011;7476;49.404;11.152;2023-09-18T14:17:47;3.80;;;1.80;;
14768;SDS011;7476;49.404;11.152;2023-09-18T14:20:14;4.73;;;1.73;;
14768;SDS011;7476;49.404;11.152;2023-09-18T14:22:43;4.40;;;1.97;;
14768;SDS011;7476;49.404;11.152;2023-09-18T14:25:10;3.50;;;1.50;;
14768;SDS011;7476;49.404;11.152;2023-09-18T14:27:37;4.27;;;1.93;;
14768;SDS011;7476;49.404;11.152;2023-09-18T14:30:04;6.13;;;2.13;;
14768;SDS011;7476;49.404;11.152;2023-09-18T14:32:32;2.50;;;1.70;;
14768;SDS011;7476;49.404;11.152;2023-09-18T14:35:02;5.37;;;2.30;;
14768;SDS011;7476;49.404;11.152;2023-09-18T14:37:30;3.20;;;1.77;;
14768;SDS011;7476;49.404;11.152;2023-09-18T14:39:56;3.73;;;1.90;;
14768;SDS011;7476;49.404;11.152;2023-09-18T14:42:23;5.03;;;1.83;;
14768;SDS011;7476;49.404;11.152;2023-09-18T14:44:50;1.90;;;1.50;;
14768;SDS011;7476;49.404;11.152;2023-09-18T14:47:16;4.60;;;1.80;;
14768;SDS011;7476;49.404;11.152;2023-09-18T14:49:43;5.37;;;1.80;;
14768;SDS011;7476;49.404;11.152;2023-09-18T14:52:12;3.60;;;1.93;;
14768;SDS011;7476;49.404;11.152;2023-09-18T14:54:41;3.43;;;1.73;;
14768;SDS011;7476;49.404;11.152;2023-09-18T14:57:07;2.77;;;1.80;;
14768;SDS011;7476;49.404;11.152;2023-09-18T14:59:35;2.47;;;1.63;;
14768;SDS011;7476;49.404;11.152;2023-09-18T15:02:03;3.07;;;1.70;;
14768;SDS011;7476;49.404;11.152;2023-09-18T15:04:29;3.40;;;1.60;;
14768;SDS011;7476;49.404;11.152;2023-09-18T15:06:58;3.27;;;1.70;;
14768;SDS011;7476;49.404;11.152;2023-09-18T15:09:25;4.80;;;1.70;;
14768;SDS011;7476;49.404;11.152;2023-09-18T15:11:52;1.80;;;1.57;;
14768;SDS011;7476;49.404;11.152;2023-09-18T15:14:19;3.80;;;1.70;;
14768;SDS011;7476;49.404;11.152;2023-09-18T15:16:45;4.00;;;1.77;;
14768;SDS011;7476;49.404;11.152;2023-09-18T15:19:12;3.10;;;1.70;;
14768;SDS011;7476;49.404;11.152;2023-09-18T15:21:40;2.80;;;1.53;;
14768;SDS011;7476;49.404;11.152;2023-09-18T15:24:06;3.40;;;1.70;;
14768;SDS011;7476;49.404;11.152;2023-09-18T15:26:35;6.23;;;2.20;;
14768;SDS011;7476;49.404;11.152;2023-09-18T15:29:02;2.10;;;1.60;;
14768;SDS011;7476;49.404;11.152;2023-09-18T15:31:29;4.13;;;1.60;;
14768;SDS011;7476;49.404;11.152;2023-09-18T15:33:55;3.40;;;1.80;;
14768;SDS011;7476;49.404;11.152;2023-09-18T15:36:22;1.80;;;1.57;;
14768;SDS011;7476;49.404;11.152;2023-09-18T15:38:49;2.27;;;1.67;;
14768;SDS011;7476;49.404;11.152;2023-09-18T15:41:16;2.90;;;1.60;;
14768;SDS011;7476;49.404;11.152;2023-09-18T15:43:44;2.47;;;1.40;;
14768;SDS011;7476;49.404;11.152;2023-09-18T15:46:11;3.10;;;1.50;;